Time;durP1;ratioP1;P1;durP2;ratioP2;P2;SDS_P1;SDS_P2;PMS_P1;PMS_P2;Temp;Humidity;BMP_temperature;BMP_pressure;BME280_temperature;BME280_humidity;BME280_pressure;Samples;Min_cycle;Max_cycle;Signal;HPM_P1;HPM_P2
2021/09/30 00:00:32;;;;;;;3.08;0.90;;;9.90;99.90;;;;;;4985400;28;20077;-74
2021/09/30 00:02:58;;;;;;;4.80;0.90;;;9.80;99.90;;;;;;4989829;28;20026;-75
2021/09/30 00:05:24;;;;;;;5.60;1.48;;;9.80;99.90;;;;;;4984412;28;20037;-76
2021/09/30 00:07:49;;;;;;;4.78;1.17;;;9.80;99.90;;;;;;4990949;28;20034;-75
2021/09/30 00:10:19;;;;;;;3.40;1.25;;;9.80;99.90;;;;;;4991404;28;20034;-76
2021/09/30 00:12:54;;;;;;;3.47;1.35;;;9.80;99.90;;;;;;4984655;28;20529;-75
2021/09/30 00:16:06;;;;;;;2.80;1.60;;;9.70;99.90;;;;;;4992886;28;20065;-76
2021/09/30 00:48:00;;;;;;;8.38;2.20;;;9.00;99.90;;;;;;4988062;28;20097;-74
2021/09/30 00:50:32;;;;;;;8.32;2.28;;;9.00;99.90;;;;;;4989480;28;20038;-75
2021/09/30 01:19:10;;;;;;;7.43;2.30;;;9.00;99.90;;;;;;4987454;28;20446;-74
2021/09/30 01:22:54;;;;;;;5.75;1.85;;;8.90;99.90;;;;;;4982459;28;20121;-74
2021/09/30 01:26:47;;;;;;;4.65;2.15;;;8.90;99.90;;;;;;4982972;28;20102;-75
2021/09/30 01:30:26;;;;;;;6.93;2.40;;;8.90;99.90;;;;;;4982982;28;20069;-75
2021/09/30 01:58:20;;;;;;;8.57;3.22;;;8.60;99.90;;;;;;4977655;28;20108;-74
2021/09/30 02:23:56;;;;;;;8.88;2.85;;;8.40;99.90;;;;;;4976233;28;20029;-75
2021/09/30 02:26:54;;;;;;;4.90;2.22;;;8.40;99.90;;;;;;4980061;28;20533;-75
2021/09/30 03:00:12;;;;;;;12.05;3.10;;;8.20;99.90;;;;;;4985890;28;20042;-75
2021/09/30 03:02:42;;;;;;;8.75;2.60;;;8.20;99.90;;;;;;4976095;28;20126;-74
2021/09/30 03:05:09;;;;;;;9.07;1.83;;;8.20;99.90;;;;;;4985312;28;20030;-74
2021/09/30 03:07:37;;;;;;;12.90;2.97;;;8.20;99.90;;;;;;4979631;28;20050;-74
2021/09/30 03:10:03;;;;;;;9.88;2.78;;;8.20;99.90;;;;;;4990253;28;20038;-75
2021/09/30 03:12:30;;;;;;;13.07;2.78;;;8.20;99.90;;;;;;4994197;28;20033;-74
2021/09/30 03:15:27;;;;;;;6.05;2.40;;;8.20;99.90;;;;;;4987375;28;20037;-75
2021/09/30 03:23:06;;;;;;;5.20;2.05;;;8.20;99.90;;;;;;4981745;28;20030;-74
2021/09/30 03:25:32;;;;;;;6.43;1.95;;;8.20;99.90;;;;;;4989948;28;20027;-75
2021/09/30 03:27:58;;;;;;;14.80;3.30;;;8.20;99.90;;;;;;4988084;28;20034;-74
2021/09/30 03:30:26;;;;;;;5.13;2.03;;;8.20;99.90;;;;;;4974878;28;20056;-75
2021/09/30 03:32:52;;;;;;;8.77;2.45;;;8.30;99.90;;;;;;4982051;28;20106;-74
2021/09/30 03:35:19;;;;;;;12.85;2.75;;;8.20;99.90;;;;;;4998018;28;20073;-75
2021/09/30 03:37:46;;;;;;;6.50;2.15;;;8.30;99.90;;;;;;4977638;28;20415;-74
2021/09/30 03:40:12;;;;;;;6.10;2.40;;;8.20;99.90;;;;;;4988572;28;20034;-74
2021/09/30 03:42:37;;;;;;;9.80;2.05;;;8.30;99.90;;;;;;4990870;28;20045;-74
2021/09/30 03:45:04;;;;;;;10.40;1.90;;;8.20;99.90;;;;;;4980367;28;20022;-75
2021/09/30 03:47:30;;;;;;;6.95;1.95;;;8.20;99.90;;;;;;4985892;28;20023;-75
2021/09/30 03:49:56;;;;;;;11.38;2.22;;;8.20;99.90;;;;;;4989741;28;20042;-75
2021/09/30 03:53:09;;;;;;;7.90;1.80;;;8.20;99.90;;;;;;4988917;28;20118;-74
2021/09/30 04:00:14;;;;;;;9.70;2.30;;;8.20;99.90;;;;;;4990620;28;20034;-74
2021/09/30 04:02:39;;;;;;;6.57;2.20;;;8.20;99.90;;;;;;4989840;28;20022;-74
2021/09/30 04:05:05;;;;;;;12.68;2.70;;;8.20;99.90;;;;;;4990409;28;20030;-74
2021/09/30 04:07:31;;;;;;;8.32;2.00;;;8.20;99.90;;;;;;4985173;28;20034;-74
2021/09/30 04:09:56;;;;;;;8.55;3.08;;;8.20;99.90;;;;;;4984791;28;20050;-74
2021/09/30 04:12:22;;;;;;;8.65;3.10;;;8.20;99.90;;;;;;4990778;28;20038;-74
2021/09/30 04:14:47;;;;;;;7.80;2.30;;;8.20;99.90;;;;;;4982747;28;20031;-74
2021/09/30 04:17:13;;;;;;;7.88;2.60;;;8.10;99.90;;;;;;4987310;28;20030;-74
2021/09/30 04:19:39;;;;;;;12.40;2.83;;;8.10;99.90;;;;;;4989600;28;20109;-75
2021/09/30 04:22:04;;;;;;;13.27;3.80;;;8.10;99.90;;;;;;4989984;28;20027;-74
2021/09/30 04:24:30;;;;;;;7.63;2.85;;;8.10;99.90;;;;;;4984621;28;20022;-75
2021/09/30 04:26:56;;;;;;;9.55;2.85;;;8.10;99.90;;;;;;4982386;28;20035;-74
2021/09/30 04:29:22;;;;;;;9.52;3.03;;;8.10;99.90;;;;;;4978717;28;20038;-74
2021/09/30 04:31:48;;;;;;;8.70;2.08;;;8.10;99.90;;;;;;4986729;28;20023;-75
2021/09/30 04:34:14;;;;;;;8.73;2.70;;;8.10;99.90;;;;;;4974897;28;20037;-74
2021/09/30 04:36:40;;;;;;;9.73;2.38;;;8.10;99.90;;;;;;4987285;28;20023;-74
2021/09/30 04:39:06;;;;;;;10.38;2.78;;;8.10;99.90;;;;;;4977811;28;20050;-75
2021/09/30 04:41:32;;;;;;;5.10;2.67;;;8.10;99.90;;;;;;4983005;28;20483;-74
2021/09/30 04:43:58;;;;;;;10.10;2.40;;;8.00;99.90;;;;;;4992626;28;20031;-76
2021/09/30 04:46:24;;;;;;;8.68;3.35;;;8.00;99.90;;;;;;4986836;28;20402;-75
2021/09/30 04:48:50;;;;;;;10.45;3.10;;;8.00;99.90;;;;;;4976087;28;20043;-75
2021/09/30 04:51:16;;;;;;;11.27;3.42;;;8.00;99.90;;;;;;4988335;28;20478;-76
2021/09/30 04:53:43;;;;;;;8.70;2.67;;;8.00;99.90;;;;;;4983547;28;20037;-76
2021/09/30 04:56:10;;;;;;;10.38;3.33;;;8.00;99.90;;;;;;4973485;28;20027;-75
2021/09/30 04:58:36;;;;;;;11.10;2.63;;;8.00;99.90;;;;;;4981169;28;20441;-74
2021/09/30 05:01:01;;;;;;;9.02;2.97;;;8.00;99.90;;;;;;4987083;28;20038;-76
2021/09/30 05:03:27;;;;;;;7.88;2.88;;;7.90;99.90;;;;;;4993612;28;20088;-75
2021/09/30 05:05:53;;;;;;;11.40;2.97;;;7.90;99.90;;;;;;4989086;28;20085;-74
2021/09/30 05:08:18;;;;;;;8.90;1.95;;;7.90;99.90;;;;;;4987354;28;20030;-76
2021/09/30 05:10:48;;;;;;;11.70;2.92;;;7.90;99.90;;;;;;4988834;28;20442;-75
2021/09/30 05:13:22;;;;;;;9.40;2.65;;;7.90;99.90;;;;;;4986692;28;20054;-76
2021/09/30 05:15:48;;;;;;;9.15;2.25;;;7.90;99.90;;;;;;5001467;28;20452;-75
2021/09/30 05:18:14;;;;;;;7.50;2.30;;;7.90;99.90;;;;;;4980858;28;20030;-77
2021/09/30 05:20:40;;;;;;;7.22;2.17;;;7.90;99.90;;;;;;4985285;28;20026;-75
2021/09/30 05:23:06;;;;;;;11.90;2.80;;;7.90;99.90;;;;;;4996755;28;20517;-75
2021/09/30 05:25:31;;;;;;;10.10;2.80;;;7.80;99.90;;;;;;4984029;28;20031;-76
2021/09/30 05:27:57;;;;;;;13.55;3.30;;;7.80;99.90;;;;;;4998059;28;20026;-76
2021/09/30 05:30:23;;;;;;;5.40;1.77;;;7.80;99.90;;;;;;4989514;28;20605;-75
2021/09/30 05:32:49;;;;;;;8.27;2.53;;;7.80;99.90;;;;;;4992695;28;20387;-75
2021/09/30 05:35:16;;;;;;;6.78;2.47;;;7.70;99.90;;;;;;4982937;28;20069;-75
2021/09/30 05:37:42;;;;;;;6.40;2.70;;;7.70;99.90;;;;;;4991798;28;20022;-75
2021/09/30 05:40:14;;;;;;;8.70;2.55;;;7.70;99.90;;;;;;4989777;28;20065;-75
2021/09/30 05:42:41;;;;;;;5.70;1.95;;;7.70;99.90;;;;;;4998017;28;20042;-75
2021/09/30 05:45:10;;;;;;;7.80;2.53;;;7.70;99.90;;;;;;4998114;28;20022;-75
2021/09/30 05:47:35;;;;;;;7.55;2.28;;;7.80;99.90;;;;;;4996469;28;20022;-76
2021/09/30 05:50:02;;;;;;;8.43;2.90;;;7.80;99.90;;;;;;4986183;28;20652;-74
2021/09/30 05:52:28;;;;;;;11.07;3.00;;;7.70;99.90;;;;;;4986429;28;20027;-74
2021/09/30 05:54:54;;;;;;;6.50;2.42;;;7.80;99.90;;;;;;4991798;28;20038;-74
2021/09/30 05:57:19;;;;;;;10.00;3.00;;;7.80;99.90;;;;;;4989176;28;20395;-74
2021/09/30 05:59:45;;;;;;;6.50;2.25;;;7.80;99.90;;;;;;4990439;28;20023;-74
2021/09/30 06:10:44;;;;;;;12.57;2.53;;;7.90;99.90;;;;;;4990132;28;20062;-74
2021/09/30 06:13:14;;;;;;;7.85;1.88;;;7.90;99.90;;;;;;4972673;28;20035;-74
2021/09/30 06:15:42;;;;;;;7.93;1.77;;;7.90;99.90;;;;;;5002357;28;20049;-74
2021/09/30 06:18:08;;;;;;;8.43;2.15;;;8.00;99.90;;;;;;4987842;28;20030;-74
2021/09/30 06:20:39;;;;;;;10.77;2.45;;;8.00;99.90;;;;;;4993152;28;20394;-76
2021/09/30 06:23:05;;;;;;;7.28;1.90;;;8.10;99.90;;;;;;5000359;28;20057;-75
2021/09/30 06:25:31;;;;;;;6.50;2.17;;;8.10;99.90;;;;;;4995283;28;20023;-76
2021/09/30 06:27:57;;;;;;;4.80;1.80;;;8.10;99.90;;;;;;4992771;28;20093;-76
2021/09/30 06:30:29;;;;;;;8.38;2.30;;;8.20;99.90;;;;;;4987138;28;20138;-76
2021/09/30 06:32:55;;;;;;;10.77;2.72;;;8.20;99.90;;;;;;4983394;28;20539;-76
2021/09/30 06:35:22;;;;;;;5.30;1.45;;;8.30;99.90;;;;;;4997875;28;20045;-75
2021/09/30 06:37:48;;;;;;;7.78;1.98;;;8.30;99.90;;;;;;5001362;28;20303;-74
2021/09/30 06:40:13;;;;;;;9.63;2.42;;;8.40;99.90;;;;;;5002265;28;20038;-75
2021/09/30 06:42:39;;;;;;;12.07;1.90;;;8.50;99.90;;;;;;4998359;28;20393;-76
2021/09/30 06:45:06;;;;;;;9.65;1.98;;;8.50;99.90;;;;;;4972808;28;20536;-76
2021/09/30 06:47:36;;;;;;;10.93;2.00;;;8.60;99.90;;;;;;4979806;28;20030;-76
2021/09/30 06:50:04;;;;;;;11.07;1.98;;;8.60;99.90;;;;;;5004094;28;20056;-76
2021/09/30 06:52:29;;;;;;;8.38;1.65;;;8.70;99.90;;;;;;4993101;28;20026;-76
2021/09/30 06:54:55;;;;;;;6.10;1.73;;;8.70;99.90;;;;;;4994506;28;20393;-76
2021/09/30 06:57:21;;;;;;;7.93;1.48;;;8.80;99.90;;;;;;4998010;28;20023;-76
2021/09/30 06:59:47;;;;;;;6.72;1.13;;;8.80;99.90;;;;;;4975111;28;20118;-76
2021/09/30 07:02:15;;;;;;;9.13;1.75;;;8.90;99.90;;;;;;4992746;28;20109;-76
2021/09/30 07:04:42;;;;;;;7.20;1.60;;;9.00;99.90;;;;;;4999323;28;20035;-77
2021/09/30 07:07:07;;;;;;;8.18;1.85;;;9.10;99.90;;;;;;4989923;28;20389;-77
2021/09/30 07:09:33;;;;;;;5.90;1.55;;;9.20;99.90;;;;;;4994593;28;20038;-76
2021/09/30 07:11:59;;;;;;;4.68;1.40;;;9.30;99.90;;;;;;4997293;28;20486;-76
2021/09/30 07:14:28;;;;;;;10.15;2.08;;;9.40;99.90;;;;;;4990527;28;20359;-77
2021/09/30 07:16:54;;;;;;;7.72;1.27;;;9.60;99.90;;;;;;4993879;28;20030;-76
2021/09/30 07:19:20;;;;;;;6.53;1.58;;;9.70;99.90;;;;;;4994479;28;20034;-77
2021/09/30 07:21:53;;;;;;;9.27;1.23;;;9.90;99.90;;;;;;4995675;28;20415;-76
2021/09/30 07:24:18;;;;;;;7.50;1.00;;;10.00;99.90;;;;;;4991981;28;20121;-75
2021/09/30 07:26:45;;;;;;;8.27;1.33;;;10.10;99.90;;;;;;4995091;28;20106;-75
2021/09/30 07:29:11;;;;;;;15.63;1.77;;;10.10;99.90;;;;;;4995429;28;20030;-75
2021/09/30 07:31:36;;;;;;;7.00;1.90;;;10.10;99.90;;;;;;5003297;28;20022;-75
2021/09/30 07:34:03;;;;;;;7.20;1.02;;;10.10;99.90;;;;;;5012105;28;20080;-76
2021/09/30 07:36:28;;;;;;;7.10;1.92;;;10.20;99.90;;;;;;5010983;28;20034;-76
2021/09/30 07:38:54;;;;;;;6.22;1.42;;;10.10;99.90;;;;;;5001042;28;20104;-76
2021/09/30 07:41:19;;;;;;;7.15;1.40;;;10.20;99.90;;;;;;4998880;28;20112;-75
2021/09/30 07:43:45;;;;;;;8.75;1.50;;;10.30;99.90;;;;;;5013990;28;20026;-76
2021/09/30 07:46:10;;;;;;;8.27;1.30;;;10.30;99.90;;;;;;5002201;28;20601;-75
2021/09/30 07:48:36;;;;;;;5.28;1.20;;;10.40;99.90;;;;;;5002763;28;20042;-75
2021/09/30 07:51:01;;;;;;;3.75;0.90;;;10.60;99.90;;;;;;5011950;28;20026;-76
2021/09/30 07:53:27;;;;;;;9.40;1.60;;;10.70;99.90;;;;;;5007156;28;20048;-76
2021/09/30 07:55:53;;;;;;;4.70;1.42;;;10.90;99.90;;;;;;5011586;28;20034;-75
2021/09/30 07:58:19;;;;;;;7.82;1.52;;;11.00;99.90;;;;;;5010396;28;20026;-75
2021/09/30 08:00:45;;;;;;;8.82;1.35;;;11.20;99.90;;;;;;5001101;28;20038;-75
2021/09/30 08:03:10;;;;;;;7.28;1.48;;;11.30;99.90;;;;;;4995553;28;20105;-75
2021/09/30 08:05:36;;;;;;;7.25;1.42;;;11.30;99.90;;;;;;4993757;28;20022;-76
2021/09/30 08:08:07;;;;;;;7.38;1.90;;;11.30;99.90;;;;;;5002237;28;20342;-75
2021/09/30 08:10:34;;;;;;;6.05;1.00;;;11.20;99.90;;;;;;4998323;28;20046;-76
2021/09/30 08:13:03;;;;;;;6.35;1.83;;;11.10;99.90;;;;;;5003444;28;20045;-76
2021/09/30 08:15:30;;;;;;;8.88;1.42;;;11.10;99.90;;;;;;4995160;28;20110;-76
2021/09/30 08:17:56;;;;;;;7.38;1.27;;;11.20;99.90;;;;;;4981918;28;20378;-76
2021/09/30 08:20:24;;;;;;;5.28;1.20;;;11.30;99.90;;;;;;5011912;28;20041;-76
2021/09/30 08:22:50;;;;;;;4.47;1.00;;;11.40;99.90;;;;;;4999980;28;20029;-76
2021/09/30 08:25:15;;;;;;;8.77;1.40;;;11.50;99.90;;;;;;5013574;28;20025;-76
2021/09/30 08:27:41;;;;;;;5.35;1.30;;;11.50;99.90;;;;;;5008170;28;20393;-76
2021/09/30 08:30:10;;;;;;;8.52;1.40;;;11.50;99.90;;;;;;4998775;28;20034;-76
2021/09/30 08:32:36;;;;;;;7.65;1.02;;;11.60;99.90;;;;;;4994387;28;20113;-75
2021/09/30 08:35:02;;;;;;;8.60;1.38;;;11.60;99.90;;;;;;5003313;28;20129;-75
2021/09/30 08:37:30;;;;;;;8.50;1.80;;;11.70;99.90;;;;;;5011848;28;20029;-74
2021/09/30 08:39:56;;;;;;;7.85;1.50;;;11.80;99.90;;;;;;5012583;28;20041;-75
2021/09/30 08:42:21;;;;;;;9.20;1.50;;;12.00;99.90;;;;;;4999940;28;20470;-75
2021/09/30 08:44:48;;;;;;;5.93;1.42;;;12.10;99.90;;;;;;5012457;28;20041;-75
2021/09/30 08:47:14;;;;;;;11.80;1.05;;;12.20;99.70;;;;;;5013000;28;20049;-75
2021/09/30 08:49:40;;;;;;;6.78;0.80;;;12.30;99.70;;;;;;4993060;28;20046;-75
2021/09/30 08:52:06;;;;;;;3.40;0.75;;;12.50;99.60;;;;;;4986871;28;20368;-75
2021/09/30 08:54:31;;;;;;;6.88;1.25;;;12.70;99.00;;;;;;4993048;28;20133;-75
2021/09/30 08:56:57;;;;;;;9.00;1.10;;;12.70;98.80;;;;;;4995999;28;20026;-75
2021/09/30 08:59:27;;;;;;;4.97;1.25;;;12.90;98.70;;;;;;5013398;28;20033;-75
2021/09/30 09:02:14;;;;;;;5.38;0.80;;;13.10;98.40;;;;;;5000113;28;20517;-75
2021/09/30 09:04:50;;;;;;;9.82;1.30;;;13.20;97.90;;;;;;4996546;28;20019;-75
2021/09/30 09:07:17;;;;;;;7.30;1.02;;;13.30;97.50;;;;;;4974319;28;20109;-75
2021/09/30 09:09:43;;;;;;;5.38;0.90;;;13.30;97.40;;;;;;4996090;28;20486;-75
2021/09/30 09:12:09;;;;;;;8.77;1.20;;;13.30;97.20;;;;;;5008322;28;20093;-75
2021/09/30 09:14:39;;;;;;;6.32;0.93;;;13.40;97.30;;;;;;4973941;28;20022;-75
2021/09/30 09:17:14;;;;;;;5.93;0.90;;;13.40;97.10;;;;;;4993273;28;20026;-75
2021/09/30 09:19:47;;;;;;;5.45;0.70;;;13.50;96.90;;;;;;4993760;28;20097;-75
2021/09/30 09:22:30;;;;;;;5.25;0.75;;;13.50;96.70;;;;;;4999287;28;20053;-75
2021/09/30 09:25:05;;;;;;;3.70;0.70;;;13.40;96.70;;;;;;5011117;28;20033;-75
2021/09/30 09:27:51;;;;;;;6.90;0.60;;;13.50;96.80;;;;;;4997406;28;20030;-75
2021/09/30 09:30:29;;;;;;;6.68;0.90;;;13.60;96.30;;;;;;4990333;28;20042;-75
2021/09/30 09:33:21;;;;;;;4.57;0.85;;;13.80;95.90;;;;;;4992032;28;20061;-75
2021/09/30 09:35:49;;;;;;;4.82;0.70;;;13.80;95.60;;;;;;5011193;28;20045;-75
2021/09/30 09:38:16;;;;;;;4.22;0.70;;;13.80;95.80;;;;;;5011163;28;20041;-75
2021/09/30 09:40:42;;;;;;;3.83;0.60;;;13.90;95.70;;;;;;4993860;28;20022;-74
2021/09/30 09:43:40;;;;;;;2.97;0.70;;;14.00;95.50;;;;;;5009939;28;20045;-76
2021/09/30 09:46:07;;;;;;;6.65;0.70;;;14.10;95.30;;;;;;5003073;28;20437;-75
2021/09/30 09:48:33;;;;;;;9.38;0.70;;;14.10;95.00;;;;;;4993156;28;20038;-75
2021/09/30 09:51:02;;;;;;;2.17;0.43;;;14.20;95.10;;;;;;5010920;28;20037;-75
2021/09/30 09:53:30;;;;;;;4.13;1.02;;;14.20;95.00;;;;;;5007890;28;20050;-75
2021/09/30 09:56:17;;;;;;;6.10;0.52;;;14.30;94.80;;;;;;4986728;28;20109;-75
2021/09/30 09:59:03;;;;;;;7.60;0.65;;;14.40;94.60;;;;;;4984754;28;20459;-76
2021/09/30 10:01:44;;;;;;;5.88;0.60;;;14.60;94.40;;;;;;4990771;28;20057;-75
2021/09/30 10:04:11;;;;;;;4.70;0.90;;;14.70;94.10;;;;;;4981654;28;20031;-76
2021/09/30 10:06:38;;;;;;;5.85;0.63;;;14.70;94.10;;;;;;4973517;28;20046;-76
2021/09/30 10:09:06;;;;;;;5.70;0.63;;;14.70;94.00;;;;;;4981739;28;20509;-76
2021/09/30 10:11:32;;;;;;;9.07;0.60;;;14.70;93.80;;;;;;4984891;28;20109;-77
2021/09/30 10:14:01;;;;;;;2.95;0.50;;;14.80;93.70;;;;;;4990523;28;20030;-77
2021/09/30 10:16:27;;;;;;;7.03;0.60;;;14.80;93.70;;;;;;4989486;28;20372;-76
2021/09/30 10:18:59;;;;;;;6.65;0.68;;;14.70;92.80;;;;;;4990699;28;20057;-77
2021/09/30 10:21:26;;;;;;;3.80;0.60;;;14.70;92.60;;;;;;4986246;28;20029;-76
2021/09/30 10:23:58;;;;;;;4.13;0.80;;;14.70;92.60;;;;;;4987917;28;20038;-76
2021/09/30 10:26:51;;;;;;;3.10;0.63;;;14.70;92.80;;;;;;4972209;28;20379;-76
2021/09/30 10:29:37;;;;;;;5.45;0.60;;;14.70;92.60;;;;;;4975338;28;20042;-76
2021/09/30 10:32:04;;;;;;;3.63;0.50;;;14.70;91.90;;;;;;4998319;28;20164;-77
2021/09/30 10:34:32;;;;;;;13.80;1.75;;;14.70;91.60;;;;;;5011151;28;20021;-77
2021/09/30 10:37:20;;;;;;;4.43;1.17;;;14.70;91.30;;;;;;5011181;28;20073;-76
2021/09/30 10:40:18;;;;;;;3.53;0.40;;;14.70;91.10;;;;;;4972301;28;20492;-77
2021/09/30 10:42:58;;;;;;;4.38;0.43;;;14.70;90.80;;;;;;4974188;28;20495;-77
2021/09/30 10:45:40;;;;;;;3.25;0.40;;;14.70;90.60;;;;;;4991110;28;20030;-77
2021/09/30 10:48:30;;;;;;;4.10;0.60;;;14.80;90.20;;;;;;4975858;28;20035;-77
2021/09/30 10:51:07;;;;;;;4.43;0.40;;;14.80;89.50;;;;;;4994832;28;20402;-77
2021/09/30 10:53:47;;;;;;;2.90;0.40;;;14.80;89.20;;;;;;4984265;28;20037;-76
2021/09/30 10:56:31;;;;;;;5.63;0.85;;;14.90;90.00;;;;;;4976483;28;20039;-77
2021/09/30 10:59:13;;;;;;;3.88;0.40;;;15.10;89.60;;;;;;4983578;28;20022;-76
2021/09/30 11:02:07;;;;;;;8.13;0.45;;;15.10;89.40;;;;;;4997971;28;20062;-76
2021/09/30 11:05:06;;;;;;;3.53;0.55;;;15.20;89.00;;;;;;4983473;28;20042;-75
2021/09/30 11:07:32;;;;;;;6.28;0.50;;;15.20;88.00;;;;;;4996527;28;20026;-75
2021/09/30 11:10:19;;;;;;;4.68;0.52;;;15.20;88.50;;;;;;4995348;28;20513;-77
2021/09/30 11:13:22;;;;;;;4.30;0.50;;;15.20;88.40;;;;;;4995806;28;20061;-76
2021/09/30 11:16:08;;;;;;;7.63;0.50;;;15.30;88.20;;;;;;4996115;28;20038;-75
2021/09/30 11:18:41;;;;;;;5.00;0.60;;;15.40;88.00;;;;;;4975392;28;20098;-76
2021/09/30 11:21:31;;;;;;;2.83;0.40;;;15.30;87.30;;;;;;4994276;28;20026;-76
2021/09/30 11:23:57;;;;;;;3.83;0.50;;;15.40;86.80;;;;;;4976569;28;20081;-75
2021/09/30 11:26:23;;;;;;;2.25;0.30;;;15.30;86.30;;;;;;4978403;28;20030;-76
2021/09/30 11:28:51;;;;;;;2.67;0.50;;;15.30;86.40;;;;;;4976727;28;20038;-76
2021/09/30 11:31:31;;;;;;;4.75;0.40;;;15.30;85.50;;;;;;4985717;28;20019;-75
2021/09/30 11:33:59;;;;;;;4.15;0.30;;;15.30;85.80;;;;;;4989651;28;20435;-76
2021/09/30 11:36:38;;;;;;;5.60;0.40;;;15.40;85.70;;;;;;4979827;28;20022;-76
2021/09/30 11:39:04;;;;;;;4.07;0.30;;;15.50;85.20;;;;;;4994363;28;20051;-77
2021/09/30 11:41:32;;;;;;;3.63;0.30;;;15.60;85.20;;;;;;4993766;28;20030;-76
2021/09/30 11:43:58;;;;;;;4.68;0.30;;;15.60;84.10;;;;;;4994958;28;20113;-76
2021/09/30 11:46:32;;;;;;;2.60;0.40;;;15.50;82.60;;;;;;4985322;28;20105;-76
2021/09/30 11:49:01;;;;;;;4.25;0.63;;;15.50;82.30;;;;;;4995225;28;20043;-75
2021/09/30 11:51:39;;;;;;;3.92;0.30;;;15.40;83.20;;;;;;4983864;28;20371;-76
2021/09/30 11:54:07;;;;;;;4.78;0.30;;;15.50;83.20;;;;;;4982375;28;20031;-75
2021/09/30 11:56:45;;;;;;;4.53;0.30;;;15.40;82.80;;;;;;4994067;28;20042;-76
2021/09/30 11:59:10;;;;;;;3.22;0.30;;;15.40;83.40;;;;;;4987008;28;20529;-75
2021/09/30 12:01:42;;;;;;;6.93;0.40;;;15.30;82.60;;;;;;4986600;28;20026;-76
2021/09/30 12:04:09;;;;;;;5.22;0.40;;;15.30;82.60;;;;;;4992971;28;20046;-75
2021/09/30 12:06:45;;;;;;;5.05;0.40;;;15.20;83.10;;;;;;4993767;28;20401;-75
2021/09/30 12:09:13;;;;;;;3.30;0.30;;;15.30;83.00;;;;;;4992812;28;20084;-76
2021/09/30 12:11:41;;;;;;;3.28;0.30;;;15.30;83.70;;;;;;4992221;28;20430;-76
2021/09/30 12:14:11;;;;;;;2.88;0.30;;;15.40;83.80;;;;;;4996343;28;20057;-75
2021/09/30 12:16:56;;;;;;;3.17;0.43;;;15.50;83.80;;;;;;4984019;28;20018;-76
2021/09/30 12:19:29;;;;;;;3.25;0.40;;;15.50;83.70;;;;;;5010514;28;20057;-76
2021/09/30 12:21:55;;;;;;;3.25;0.50;;;15.60;83.70;;;;;;4985922;28;20022;-76
2021/09/30 12:24:23;;;;;;;9.13;0.50;;;15.60;83.70;;;;;;4996106;28;20462;-74
2021/09/30 12:26:48;;;;;;;6.63;0.52;;;15.70;83.10;;;;;;4997410;28;20026;-75
2021/09/30 12:29:17;;;;;;;3.45;0.30;;;15.70;83.40;;;;;;4996159;28;20114;-75
2021/09/30 12:31:43;;;;;;;4.32;0.30;;;15.70;83.30;;;;;;4995216;28;20041;-76
2021/09/30 12:34:25;;;;;;;4.90;0.40;;;15.80;83.40;;;;;;4993991;28;20038;-76
2021/09/30 12:36:50;;;;;;;4.67;0.50;;;15.80;83.60;;;;;;4978392;28;20034;-77
2021/09/30 12:39:24;;;;;;;4.72;0.40;;;15.90;83.60;;;;;;4994042;28;20415;-74
2021/09/30 12:41:50;;;;;;;5.72;0.55;;;16.00;83.20;;;;;;4993350;28;20068;-76
2021/09/30 12:44:16;;;;;;;5.65;0.40;;;16.10;82.50;;;;;;4992830;28;20495;-75
2021/09/30 12:46:44;;;;;;;2.78;0.30;;;16.10;82.60;;;;;;4993338;28;20081;-75
2021/09/30 12:49:10;;;;;;;2.45;0.40;;;16.10;83.00;;;;;;4993587;28;20042;-76
2021/09/30 12:51:35;;;;;;;2.53;0.50;;;16.20;82.10;;;;;;4993640;28;20035;-76
2021/09/30 12:54:01;;;;;;;6.18;0.50;;;16.20;82.30;;;;;;4989081;28;20031;-76
2021/09/30 12:56:29;;;;;;;6.32;0.70;;;16.10;82.30;;;;;;4991711;28;20049;-77
2021/09/30 12:59:08;;;;;;;3.45;0.47;;;16.10;81.60;;;;;;4990374;28;20128;-76
2021/09/30 13:01:44;;;;;;;3.65;0.40;;;15.90;82.10;;;;;;4988861;28;20389;-78
2021/09/30 13:04:28;;;;;;;4.65;0.50;;;15.90;82.50;;;;;;5007116;28;20032;-74
2021/09/30 13:07:02;;;;;;;3.10;0.30;;;15.90;83.00;;;;;;4993319;28;20025;-74
2021/09/30 13:09:33;;;;;;;6.30;0.40;;;15.90;83.20;;;;;;4980433;28;20058;-77
2021/09/30 13:12:04;;;;;;;3.33;0.30;;;15.90;83.30;;;;;;4981644;28;20101;-77
2021/09/30 13:14:43;;;;;;;3.13;0.30;;;15.90;83.10;;;;;;4992817;28;20031;-76
2021/09/30 13:17:08;;;;;;;4.07;0.40;;;15.80;83.20;;;;;;4980708;28;20034;-77
2021/09/30 13:19:47;;;;;;;6.28;0.65;;;15.80;83.40;;;;;;4993743;28;20029;-77
2021/09/30 13:22:33;;;;;;;6.28;0.30;;;15.80;83.70;;;;;;4992260;28;20552;-77
2021/09/30 13:25:11;;;;;;;2.92;0.40;;;15.80;84.00;;;;;;4992440;28;20029;-77
2021/09/30 13:27:40;;;;;;;3.45;0.40;;;15.80;84.40;;;;;;4992696;28;20434;-77
2021/09/30 13:30:11;;;;;;;5.13;0.40;;;15.80;84.70;;;;;;4991933;28;20101;-77
2021/09/30 13:32:38;;;;;;;5.47;0.57;;;15.90;84.40;;;;;;4987965;28;20056;-77
2021/09/30 13:35:05;;;;;;;3.92;0.40;;;15.80;84.50;;;;;;4985755;28;20113;-77
2021/09/30 13:37:31;;;;;;;4.10;0.73;;;15.90;84.70;;;;;;4992300;28;20101;-77
2021/09/30 13:39:58;;;;;;;3.35;0.40;;;15.90;84.80;;;;;;4992084;28;20475;-76
2021/09/30 13:42:26;;;;;;;5.55;0.65;;;15.80;84.60;;;;;;4991519;28;20030;-76
2021/09/30 13:44:52;;;;;;;4.90;0.40;;;15.80;84.10;;;;;;4992243;28;20388;-77
2021/09/30 13:47:17;;;;;;;6.15;0.60;;;15.60;84.80;;;;;;4985882;28;20050;-76
2021/09/30 13:49:47;;;;;;;3.20;0.40;;;15.60;84.20;;;;;;4974176;28;20046;-77
2021/09/30 13:52:13;;;;;;;6.10;0.40;;;15.50;84.40;;;;;;4991992;28;20054;-74
2021/09/30 13:54:39;;;;;;;5.22;0.70;;;15.50;85.20;;;;;;4990754;28;20045;-75
2021/09/30 13:57:05;;;;;;;5.75;0.70;;;15.50;85.30;;;;;;4989953;28;20475;-76
2021/09/30 13:59:31;;;;;;;6.43;0.50;;;15.50;85.30;;;;;;4996284;28;20485;-75
2021/09/30 14:01:56;;;;;;;2.15;0.43;;;15.50;85.10;;;;;;4991531;28;20035;-77
2021/09/30 14:04:22;;;;;;;3.92;0.60;;;15.50;85.30;;;;;;4986797;28;20027;-76
2021/09/30 14:06:48;;;;;;;2.83;0.43;;;15.50;85.10;;;;;;4990392;28;20395;-76
2021/09/30 14:09:14;;;;;;;9.73;0.90;;;15.50;85.30;;;;;;4975224;28;20038;-76
2021/09/30 14:11:40;;;;;;;4.63;0.50;;;15.50;85.60;;;;;;4983944;28;20073;-76
2021/09/30 14:14:06;;;;;;;3.65;0.80;;;15.50;86.10;;;;;;4978272;28;20081;-76
2021/09/30 14:16:31;;;;;;;4.95;0.70;;;15.40;85.90;;;;;;4973598;28;20027;-76
2021/09/30 14:18:57;;;;;;;5.85;1.02;;;15.40;86.30;;;;;;4986924;28;20132;-77
2021/09/30 14:21:23;;;;;;;4.55;0.80;;;15.40;86.20;;;;;;4976863;28;20035;-77
2021/09/30 14:23:49;;;;;;;4.68;1.23;;;15.40;85.90;;;;;;4995762;28;20193;-77
2021/09/30 14:26:14;;;;;;;6.13;0.80;;;15.40;85.80;;;;;;4996135;28;20034;-76
2021/09/30 14:28:40;;;;;;;4.07;0.73;;;15.30;85.90;;;;;;4984951;28;20069;-77
2021/09/30 14:31:06;;;;;;;3.75;0.60;;;15.30;86.10;;;;;;4995084;28;20041;-76
2021/09/30 14:33:32;;;;;;;4.68;0.75;;;15.30;85.90;;;;;;4992980;28;20109;-77
2021/09/30 14:35:59;;;;;;;3.42;0.50;;;15.40;86.00;;;;;;4989933;28;20118;-78
2021/09/30 14:38:27;;;;;;;5.13;0.60;;;15.40;86.10;;;;;;4986861;28;20057;-77
2021/09/30 14:40:53;;;;;;;5.68;0.85;;;15.30;86.20;;;;;;4995672;28;20058;-77
2021/09/30 14:43:24;;;;;;;4.38;0.90;;;15.40;86.40;;;;;;4995235;28;20026;-77
2021/09/30 14:45:52;;;;;;;3.77;0.50;;;15.40;86.40;;;;;;4995276;28;20057;-77
2021/09/30 14:48:18;;;;;;;3.75;0.45;;;15.30;86.60;;;;;;4994789;28;20026;-77
2021/09/30 14:50:44;;;;;;;5.28;1.20;;;15.30;86.60;;;;;;4988233;28;20589;-77
2021/09/30 14:53:10;;;;;;;4.13;0.60;;;15.30;86.40;;;;;;4975557;28;20031;-77
2021/09/30 14:55:37;;;;;;;3.15;0.60;;;15.20;86.40;;;;;;4975888;28;20031;-77
2021/09/30 14:58:03;;;;;;;8.38;1.45;;;15.20;86.80;;;;;;4975859;28;20449;-77
2021/09/30 15:00:29;;;;;;;4.80;0.50;;;15.20;86.80;;;;;;4977099;28;20018;-77
2021/09/30 15:02:55;;;;;;;4.50;0.60;;;15.20;86.90;;;;;;4995297;28;20073;-78
2021/09/30 15:05:20;;;;;;;5.28;0.40;;;15.20;87.00;;;;;;4976058;28;20058;-77
2021/09/30 15:07:46;;;;;;;8.75;0.40;;;15.10;87.10;;;;;;4988490;28;20109;-78
2021/09/30 15:10:12;;;;;;;5.20;0.50;;;15.10;87.30;;;;;;4989627;28;20034;-76
2021/09/30 15:12:38;;;;;;;6.40;1.05;;;15.00;87.50;;;;;;4994275;28;20411;-77
2021/09/30 15:15:06;;;;;;;4.50;0.40;;;15.00;88.00;;;;;;4995673;28;20037;-76
2021/09/30 15:17:46;;;;;;;7.43;0.70;;;14.90;88.00;;;;;;4995552;28;20106;-77
2021/09/30 15:21:20;;;;;;;4.68;0.60;;;14.90;88.20;;;;;;4981650;28;20027;-75
2021/09/30 15:22:58;;;;;;;3.70;0.50;;;14.80;88.20;;;;;;4994343;28;20067;-76
2021/09/30 15:25:24;;;;;;;4.47;0.38;;;14.80;88.30;;;;;;4977769;28;20082;-76
2021/09/30 15:27:52;;;;;;;3.88;0.40;;;14.70;88.50;;;;;;4983975;28;20037;-76
2021/09/30 15:30:18;;;;;;;7.72;0.50;;;14.70;88.60;;;;;;4992919;28;20038;-76
2021/09/30 15:32:43;;;;;;;4.60;0.40;;;14.70;88.80;;;;;;4993888;28;20041;-76
2021/09/30 15:35:10;;;;;;;7.80;0.60;;;14.60;88.90;;;;;;4994593;28;20061;-77
2021/09/30 15:37:36;;;;;;;5.43;0.52;;;14.60;89.00;;;;;;4999325;28;20371;-76
2021/09/30 15:40:04;;;;;;;6.88;0.43;;;14.60;89.30;;;;;;4991524;28;20062;-76